Opotiki Weather Station Historical Data
Version 3.4b - 01-Dec-2017
Daily Summary for December 08, 2018 Units:  Both    English   Metric
« Previous Day
Next Day »
Daily Weekly Monthly Yearly Custom
  High: Low: Average:
Temperature: 82.2 °F /  27.9 °C 46.6 °F /  8.1 °C 64.9 °F /  18.3 °C
Dew Point: 59.4 °F /  15.2 °C 41.4 °F /  5.2 °C 51.1 °F /  10.6 °C
Humidity: 99% 27% 66%
Wind Speed: 3.8mph /  6.1km/h - 0.9mph /  1.5km/h
Wind Gust: 10.7mph /  17.2km/h - -
Wind- - SSE
Pressure: 30.2 in /  1022.7 hPa 30.1 in /  1019.0 hPa -
Precipitation: 0 in /  0.0 mm    
Historical Graphs
 
 
Tabular Data for December 08, 2018
Time Temperature Dew Point Pressure Wind Wind Speed Wind Gust Humidity Rain Rate (Hrly) Rain Day
00:04 50.7 °F /  10.4 °C 46.9 °F /  8.3 °C 30.2in /  1022.4hPa Calm   0.7mph /  1.1km/h 87% 0in /  0.0mm 0.0mm
00:08 50.7 °F /  10.4 °C 47.3 °F /  8.5 °C 30.2in /  1022.4hPa Calm   0.7mph /  1.1km/h 88% 0in /  0.0mm 0.0mm
00:14 50.5 °F /  10.3 °C 47.5 °F /  8.6 °C 30.2in /  1022.4hPa Calm   0.7mph /  1.1km/h 89% 0in /  0.0mm 0.0mm
00:18 50.5 °F /  10.3 °C 47.5 °F /  8.6 °C 30.2in /  1022.5hPa Calm   1.6mph /  2.6km/h 89% 0in /  0.0mm 0.0mm
00:24 50.5 °F /  10.3 °C 47.5 °F /  8.6 °C 30.2in /  1022.4hPa Calm   1.6mph /  2.6km/h 89% 0in /  0.0mm 0.0mm
00:28 50.4 °F /  10.2 °C 47.1 °F /  8.4 °C 30.2in /  1022.3hPa Calm   0.7mph /  1.1km/h 89% 0in /  0.0mm 0.0mm
00:34 50.4 °F /  10.2 °C 47.5 °F /  8.6 °C 30.2in /  1022.3hPa Calm   0.7mph /  1.1km/h 90% 0in /  0.0mm 0.0mm
00:38 50 °F /  10.0 °C 47.1 °F /  8.4 °C 30.2in /  1022.5hPa Calm   2.2mph /  3.5km/h 90% 0in /  0.0mm 0.0mm
00:44 50 °F /  10.0 °C 47.1 °F /  8.4 °C 30.2in /  1022.2hPa Calm   2.2mph /  3.5km/h 90% 0in /  0.0mm 0.0mm
00:48 50 °F /  10.0 °C 47.1 °F /  8.4 °C 30.2in /  1022.0hPa Calm   1.6mph /  2.6km/h 90% 0in /  0.0mm 0.0mm
00:54 50 °F /  10.0 °C 47.1 °F /  8.4 °C 30.2in /  1022.1hPa Calm   1.6mph /  2.6km/h 90% 0in /  0.0mm 0.0mm
00:58 50.2 °F /  10.1 °C 47.7 °F /  8.7 °C 30.2in /  1022.0hPa WNW 0.7mph /  1.1km/h 1.6mph /  2.6km/h 91% 0in /  0.0mm 0.0mm
01:04 50.4 °F /  10.2 °C 47.8 °F /  8.8 °C 30.2in /  1021.8hPa WNW 0.7mph /  1.1km/h 2.2mph /  3.5km/h 91% 0in /  0.0mm 0.0mm
01:08 50.4 °F /  10.2 °C 47.8 °F /  8.8 °C 30.2in /  1022.0hPa Calm   2.2mph /  3.5km/h 91% 0in /  0.0mm 0.0mm
01:14 50.4 °F /  10.2 °C 47.8 °F /  8.8 °C 30.2in /  1022.0hPa Calm   1.6mph /  2.6km/h 91% 0in /  0.0mm 0.0mm
01:18 50.4 °F /  10.2 °C 47.8 °F /  8.8 °C 30.2in /  1021.9hPa Calm   1.6mph /  2.6km/h 91% 0in /  0.0mm 0.0mm
01:24 50 °F /  10.0 °C 47.5 °F /  8.6 °C 30.2in /  1021.7hPa Calm     91% 0in /  0.0mm 0.0mm
01:28 50 °F /  10.0 °C 47.5 °F /  8.6 °C 30.2in /  1021.6hPa Calm   1.6mph /  2.6km/h 91% 0in /  0.0mm 0.0mm
01:34 49.8 °F /  9.9 °C 47.7 °F /  8.7 °C 30.2in /  1021.8hPa Calm   1.6mph /  2.6km/h 92% 0in /  0.0mm 0.0mm
01:38 49.6 °F /  9.8 °C 47.5 °F /  8.6 °C 30.2in /  1021.8hPa Calm   1.6mph /  2.6km/h 92% 0in /  0.0mm 0.0mm
01:44 49.5 °F /  9.7 °C 47.1 °F /  8.4 °C 30.2in /  1021.9hPa Calm   1.6mph /  2.6km/h 92% 0in /  0.0mm 0.0mm
01:48 49.5 °F /  9.7 °C 47.1 °F /  8.4 °C 30.2in /  1021.9hPa Calm   1.6mph /  2.6km/h 92% 0in /  0.0mm 0.0mm
01:54 49.3 °F /  9.6 °C 47.1 °F /  8.4 °C 30.2in /  1021.9hPa Calm   1.6mph /  2.6km/h 92% 0in /  0.0mm 0.0mm
01:58 49.3 °F /  9.6 °C 47.1 °F /  8.4 °C 30.2in /  1021.8hPa Calm   1.6mph /  2.6km/h 92% 0in /  0.0mm 0.0mm
02:04 49.1 °F /  9.5 °C 46.9 °F /  8.3 °C 30.2in /  1021.9hPa Calm   0.7mph /  1.1km/h 92% 0in /  0.0mm 0.0mm
02:08 49.1 °F /  9.5 °C 46.9 °F /  8.3 °C 30.2in /  1021.8hPa Calm   0.7mph /  1.1km/h 92% 0in /  0.0mm 0.0mm
02:14 48.7 °F /  9.3 °C 46.6 °F /  8.1 °C 30.2in /  1021.6hPa Calm   0.7mph /  1.1km/h 92% 0in /  0.0mm 0.0mm
02:18 48.7 °F /  9.3 °C 46.6 °F /  8.1 °C 30.2in /  1021.7hPa Calm   0.7mph /  1.1km/h 92% 0in /  0.0mm 0.0mm
02:24 48.7 °F /  9.3 °C 46.8 °F /  8.2 °C 30.2in /  1021.7hPa Calm   1.6mph /  2.6km/h 93% 0in /  0.0mm 0.0mm
02:28 48.7 °F /  9.3 °C 46.8 °F /  8.2 °C 30.2in /  1021.7hPa Calm   1.6mph /  2.6km/h 93% 0in /  0.0mm 0.0mm
02:34 48.9 °F /  9.4 °C 46.9 °F /  8.3 °C 30.2in /  1021.7hPa Calm   1.6mph /  2.6km/h 93% 0in /  0.0mm 0.0mm
02:38 48.9 °F /  9.4 °C 46.9 °F /  8.3 °C 30.2in /  1021.6hPa Calm   1.6mph /  2.6km/h 93% 0in /  0.0mm 0.0mm
02:44 48.9 °F /  9.4 °C 46.9 °F /  8.3 °C 30.2in /  1021.5hPa Calm   0.7mph /  1.1km/h 93% 0in /  0.0mm 0.0mm
02:48 48.7 °F /  9.3 °C 46.8 °F /  8.2 °C 30.2in /  1021.7hPa Calm   0.7mph /  1.1km/h 93% 0in /  0.0mm 0.0mm
02:54 48.9 °F /  9.4 °C 46.9 °F /  8.3 °C 30.2in /  1021.6hPa Calm   0.7mph /  1.1km/h 93% 0in /  0.0mm 0.0mm
02:58 48.7 °F /  9.3 °C 46.8 °F /  8.2 °C 30.2in /  1021.6hPa Calm   0.7mph /  1.1km/h 93% 0in /  0.0mm 0.0mm
03:04 48.6 °F /  9.2 °C 46.6 °F /  8.1 °C 30.2in /  1021.5hPa Calm   0.7mph /  1.1km/h 93% 0in /  0.0mm 0.0mm
03:08 48.6 °F /  9.2 °C 46.6 °F /  8.1 °C 30.2in /  1021.6hPa Calm   0.7mph /  1.1km/h 93% 0in /  0.0mm 0.0mm
03:14 48 °F /  8.9 °C 46.4 °F /  8.0 °C 30.2in /  1021.7hPa Calm     94% 0in /  0.0mm 0.0mm
03:18 47.8 °F /  8.8 °C 46.2 °F /  7.9 °C 30.2in /  1021.5hPa Calm   0.7mph /  1.1km/h 94% 0in /  0.0mm 0.0mm
03:24 47.8 °F /  8.8 °C 46.2 °F /  7.9 °C 30.2in /  1021.5hPa Calm   0.7mph /  1.1km/h 94% 0in /  0.0mm 0.0mm
03:28 47.8 °F /  8.8 °C 46.2 °F /  7.9 °C 30.2in /  1021.4hPa Calm   0.7mph /  1.1km/h 94% 0in /  0.0mm 0.0mm
03:34 47.7 °F /  8.7 °C 46 °F /  7.8 °C 30.2in /  1021.5hPa Calm   0.7mph /  1.1km/h 94% 0in /  0.0mm 0.0mm
03:38 47.8 °F /  8.8 °C 46.2 °F /  7.9 °C 30.2in /  1021.5hPa Calm   0.7mph /  1.1km/h 94% 0in /  0.0mm 0.0mm
03:44 47.8 °F /  8.8 °C 46.6 °F /  8.1 °C 30.2in /  1021.6hPa Calm   0.7mph /  1.1km/h 95% 0in /  0.0mm 0.0mm
03:48 47.8 °F /  8.8 °C 46.6 °F /  8.1 °C 30.2in /  1021.5hPa Calm   0.7mph /  1.1km/h 95% 0in /  0.0mm 0.0mm
03:54 47.7 °F /  8.7 °C 46.2 °F /  7.9 °C 30.2in /  1021.4hPa Calm   0.7mph /  1.1km/h 95% 0in /  0.0mm 0.0mm
03:58 47.7 °F /  8.7 °C 46.2 °F /  7.9 °C 30.2in /  1021.5hPa Calm   0.7mph /  1.1km/h 95% 0in /  0.0mm 0.0mm
04:04 47.5 °F /  8.6 °C 46 °F /  7.8 °C 30.2in /  1021.3hPa Calm   0.7mph /  1.1km/h 95% 0in /  0.0mm 0.0mm
04:08 47.1 °F /  8.4 °C 45.9 °F /  7.7 °C 30.2in /  1021.2hPa Calm   0.7mph /  1.1km/h 95% 0in /  0.0mm 0.0mm
04:14 47.1 °F /  8.4 °C 45.9 °F /  7.7 °C 30.2in /  1021.2hPa Calm   0.7mph /  1.1km/h 95% 0in /  0.0mm 0.0mm
04:18 47.1 °F /  8.4 °C 45.9 °F /  7.7 °C 30.2in /  1021.2hPa Calm   0.7mph /  1.1km/h 95% 0in /  0.0mm 0.0mm
04:24 47.1 °F /  8.4 °C 45.9 °F /  7.7 °C 30.2in /  1021.4hPa Calm   0.7mph /  1.1km/h 95% 0in /  0.0mm 0.0mm
04:28 47.3 °F /  8.5 °C 45.9 °F /  7.7 °C 30.2in /  1021.3hPa Calm   0.7mph /  1.1km/h 95% 0in /  0.0mm 0.0mm
04:34 47.5 °F /  8.6 °C 46.4 °F /  8.0 °C 30.2in /  1021.4hPa WSW 0.7mph /  1.1km/h 1.6mph /  2.6km/h 96% 0in /  0.0mm 0.0mm
04:38 47.5 °F /  8.6 °C 46.4 °F /  8.0 °C 30.2in /  1021.4hPa Calm   1.6mph /  2.6km/h 96% 0in /  0.0mm 0.0mm
04:44 47.5 °F /  8.6 °C 46.4 °F /  8.0 °C 30.2in /  1021.4hPa Calm   1.6mph /  2.6km/h 96% 0in /  0.0mm 0.0mm
04:48 47.3 °F /  8.5 °C 46.2 °F /  7.9 °C 30.2in /  1021.3hPa Calm   0.7mph /  1.1km/h 96% 0in /  0.0mm 0.0mm
04:54 47.3 °F /  8.5 °C 46.2 °F /  7.9 °C 30.2in /  1021.3hPa Calm   0.7mph /  1.1km/h 96% 0in /  0.0mm 0.0mm
04:58 47.1 °F /  8.4 °C 46 °F /  7.8 °C 30.2in /  1021.2hPa Calm   0.7mph /  1.1km/h 96% 0in /  0.0mm 0.0mm
05:04 46.8 °F /  8.2 °C 45.7 °F /  7.6 °C 30.2in /  1021.3hPa Calm   0.7mph /  1.1km/h 96% 0in /  0.0mm 0.0mm
05:08 46.8 °F /  8.2 °C 45.7 °F /  7.6 °C 30.2in /  1021.2hPa Calm   0.7mph /  1.1km/h 96% 0in /  0.0mm 0.0mm
05:14 46.8 °F /  8.2 °C 46 °F /  7.8 °C 30.2in /  1021.1hPa Calm   0.7mph /  1.1km/h 97% 0in /  0.0mm 0.0mm
05:18 46.6 °F /  8.1 °C 45.9 °F /  7.7 °C 30.2in /  1021.3hPa Calm   0.7mph /  1.1km/h 97% 0in /  0.0mm 0.0mm
05:24 46.6 °F /  8.1 °C 45.9 °F /  7.7 °C 30.2in /  1021.4hPa Calm   0.7mph /  1.1km/h 97% 0in /  0.0mm 0.0mm
05:28 46.6 °F /  8.1 °C 45.9 °F /  7.7 °C 30.2in /  1021.3hPa Calm   0.7mph /  1.1km/h 97% 0in /  0.0mm 0.0mm
05:34 46.6 °F /  8.1 °C 45.9 °F /  7.7 °C 30.2in /  1021.5hPa Calm     97% 0in /  0.0mm 0.0mm
05:38 46.6 °F /  8.1 °C 45.9 °F /  7.7 °C 30.2in /  1021.3hPa Calm   0.7mph /  1.1km/h 97% 0in /  0.0mm 0.0mm
05:44 46.6 °F /  8.1 °C 45.9 °F /  7.7 °C 30.2in /  1021.4hPa Calm   0.7mph /  1.1km/h 97% 0in /  0.0mm 0.0mm
05:48 46.8 °F /  8.2 °C 46 °F /  7.8 °C 30.2in /  1021.4hPa Calm   0.7mph /  1.1km/h 97% 0in /  0.0mm 0.0mm
05:54 46.8 °F /  8.2 °C 46 °F /  7.8 °C 30.2in /  1021.5hPa Calm   0.7mph /  1.1km/h 97% 0in /  0.0mm 0.0mm
05:58 46.9 °F /  8.3 °C 46 °F /  7.8 °C 30.2in /  1021.5hPa Calm   0.7mph /  1.1km/h 97% 0in /  0.0mm 0.0mm
06:04 46.9 °F /  8.3 °C 46.4 °F /  8.0 °C 30.2in /  1021.6hPa Calm     98% 0in /  0.0mm 0.0mm
06:08 46.9 °F /  8.3 °C 46.4 °F /  8.0 °C 30.2in /  1021.5hPa Calm     98% 0in /  0.0mm 0.0mm
06:14 46.9 °F /  8.3 °C 46.4 °F /  8.0 °C 30.2in /  1021.4hPa Calm     98% 0in /  0.0mm 0.0mm
06:18 47.1 °F /  8.4 °C 46.6 °F /  8.1 °C 30.2in /  1021.5hPa Calm     98% 0in /  0.0mm 0.0mm
06:24 47.3 °F /  8.5 °C 46.8 °F /  8.2 °C 30.2in /  1021.8hPa Calm     98% 0in /  0.0mm 0.0mm
06:28 47.5 °F /  8.6 °C 46.9 °F /  8.3 °C 30.2in /  1021.9hPa Calm   0.7mph /  1.1km/h 98% 0in /  0.0mm 0.0mm
06:34 47.8 °F /  8.8 °C 47.7 °F /  8.7 °C 30.2in /  1021.9hPa Calm   0.7mph /  1.1km/h 99% 0in /  0.0mm 0.0mm
06:38 47.8 °F /  8.8 °C 47.7 °F /  8.7 °C 30.2in /  1021.9hPa Calm   0.7mph /  1.1km/h 99% 0in /  0.0mm 0.0mm
06:44 48.2 °F /  9.0 °C 47.7 °F /  8.7 °C 30.2in /  1021.9hPa Calm   0.7mph /  1.1km/h 98% 0in /  0.0mm 0.0mm
06:48 48.4 °F /  9.1 °C 47.8 °F /  8.8 °C 30.2in /  1021.9hPa Calm   0.7mph /  1.1km/h 98% 0in /  0.0mm 0.0mm
06:54 48.7 °F /  9.3 °C 48.2 °F /  9.0 °C 30.2in /  1021.6hPa WSW 0.7mph /  1.1km/h 1.6mph /  2.6km/h 98% 0in /  0.0mm 0.0mm
06:58 49.1 °F /  9.5 °C 48.6 °F /  9.2 °C 30.2in /  1021.5hPa Calm   1.6mph /  2.6km/h 98% 0in /  0.0mm 0.0mm
07:04 49.6 °F /  9.8 °C 49.5 °F /  9.7 °C 30.2in /  1021.8hPa Calm   1.6mph /  2.6km/h 99% 0in /  0.0mm 0.0mm
07:08 49.8 °F /  9.9 °C 49.6 °F /  9.8 °C 30.2in /  1022.0hPa Calm   1.6mph /  2.6km/h 99% 0in /  0.0mm 0.0mm
07:14 50.2 °F /  10.1 °C 49.6 °F /  9.8 °C 30.2in /  1021.9hPa Calm   0.7mph /  1.1km/h 98% 0in /  0.0mm 0.0mm
07:18 50.5 °F /  10.3 °C 50 °F /  10.0 °C 30.2in /  1022.1hPa Calm   0.7mph /  1.1km/h 98% 0in /  0.0mm 0.0mm
07:24 50.9 °F /  10.5 °C 50.4 °F /  10.2 °C 30.2in /  1022.1hPa Calm   0.7mph /  1.1km/h 98% 0in /  0.0mm 0.0mm
07:28 51.1 °F /  10.6 °C 50.5 °F /  10.3 °C 30.2in /  1022.0hPa Calm   0.7mph /  1.1km/h 98% 0in /  0.0mm 0.0mm
07:34 52.2 °F /  11.2 °C 51.6 °F /  10.9 °C 30.2in /  1022.2hPa Calm   1.6mph /  2.6km/h 98% 0in /  0.0mm 0.0mm
07:38 53.8 °F /  12.1 °C 53.1 °F /  11.7 °C 30.2in /  1022.2hPa Calm   1.6mph /  2.6km/h 97% 0in /  0.0mm 0.0mm
07:44 57 °F /  13.9 °C 56.1 °F /  13.4 °C 30.2in /  1022.1hPa Calm   2.2mph /  3.5km/h 97% 0in /  0.0mm 0.0mm
07:48 59 °F /  15.0 °C 57.6 °F /  14.2 °C 30.2in /  1022.4hPa Calm   2.2mph /  3.5km/h 95% 0in /  0.0mm 0.0mm
07:54 61.2 °F /  16.2 °C 58.8 °F /  14.9 °C 30.2in /  1022.5hPa WNW 0.7mph /  1.1km/h 2.2mph /  3.5km/h 92% 0in /  0.0mm 0.0mm
07:58 62.6 °F /  17.0 °C 59.4 °F /  15.2 °C 30.2in /  1022.5hPa Calm   2.2mph /  3.5km/h 89% 0in /  0.0mm 0.0mm
08:04 64.8 °F /  18.2 °C 59.2 °F /  15.1 °C 30.2in /  1022.6hPa WNW 0.7mph /  1.1km/h 1.6mph /  2.6km/h 82% 0in /  0.0mm 0.0mm
08:08 65.5 °F /  18.6 °C 55.6 °F /  13.1 °C 30.2in /  1022.6hPa West 0.7mph /  1.1km/h 3.1mph /  5.0km/h 70% 0in /  0.0mm 0.0mm
08:14 65.8 °F /  18.8 °C 52.9 °F /  11.6 °C 30.2in /  1022.5hPa Calm   3.1mph /  5.0km/h 63% 0in /  0.0mm 0.0mm
08:18 66.6 °F /  19.2 °C 53.2 °F /  11.8 °C 30.2in /  1022.5hPa Calm   3.1mph /  5.0km/h 62% 0in /  0.0mm 0.0mm
08:24 68.5 °F /  20.3 °C 52.7 °F /  11.5 °C 30.2in /  1022.7hPa West 0.7mph /  1.1km/h 2.2mph /  3.5km/h 57% 0in /  0.0mm 0.0mm
08:28 69.3 °F /  20.7 °C 52.3 °F /  11.3 °C 30.2in /  1022.5hPa WSW 0.7mph /  1.1km/h 2.2mph /  3.5km/h 55% 0in /  0.0mm 0.0mm
08:34 70.2 °F /  21.2 °C 51.6 °F /  10.9 °C 30.2in /  1022.4hPa WNW 0.7mph /  1.1km/h 2.2mph /  3.5km/h 52% 0in /  0.0mm 0.0mm
08:38 70.5 °F /  21.4 °C 52.2 °F /  11.2 °C 30.2in /  1022.3hPa NW 0.7mph /  1.1km/h 1.6mph /  2.6km/h 52% 0in /  0.0mm 0.0mm
08:44 72.3 °F /  22.4 °C 51.6 °F /  10.9 °C 30.2in /  1022.3hPa Calm   3.1mph /  5.0km/h 48% 0in /  0.0mm 0.0mm
08:48 73.2 °F /  22.9 °C 51.8 °F /  11.0 °C 30.2in /  1022.3hPa NE 1.6mph /  2.6km/h 3.1mph /  5.0km/h 47% 0in /  0.0mm 0.0mm
08:54 74.5 °F /  23.6 °C 51.8 °F /  11.0 °C 30.2in /  1022.2hPa Calm   2.2mph /  3.5km/h 45% 0in /  0.0mm 0.0mm
08:58 75 °F /  23.9 °C 52.9 °F /  11.6 °C 30.2in /  1022.0hPa Calm   2.2mph /  3.5km/h 46% 0in /  0.0mm 0.0mm
09:04 75.9 °F /  24.4 °C 50.5 °F /  10.3 °C 30.2in /  1022.0hPa NNW 0.7mph /  1.1km/h 2.2mph /  3.5km/h 41% 0in /  0.0mm 0.0mm
09:08 75.9 °F /  24.4 °C 50.5 °F /  10.3 °C 30.2in /  1022.0hPa Calm   2.2mph /  3.5km/h 41% 0in /  0.0mm 0.0mm
09:14 77 °F /  25.0 °C 50.2 °F /  10.1 °C 30.2in /  1021.8hPa ENE 0.7mph /  1.1km/h 2.2mph /  3.5km/h 39% 0in /  0.0mm 0.0mm
09:18 77.4 °F /  25.2 °C 49.1 °F /  9.5 °C 30.2in /  1021.7hPa ESE 0.7mph /  1.1km/h 2.2mph /  3.5km/h 37% 0in /  0.0mm 0.0mm
09:24 77.4 °F /  25.2 °C 49.8 °F /  9.9 °C 30.2in /  1021.9hPa Calm   2.2mph /  3.5km/h 38% 0in /  0.0mm 0.0mm
09:28 78.1 °F /  25.6 °C 51.1 °F /  10.6 °C 30.2in /  1022.1hPa Calm   2.2mph /  3.5km/h 39% 0in /  0.0mm 0.0mm
09:34 80.1 °F /  26.7 °C 51.4 °F /  10.8 °C 30.2in /  1022.1hPa Calm   3.1mph /  5.0km/h 37% 0in /  0.0mm 0.0mm
09:38 80.1 °F /  26.7 °C 47.7 °F /  8.7 °C 30.2in /  1022.2hPa East 0.7mph /  1.1km/h 3.1mph /  5.0km/h 32% 0in /  0.0mm 0.0mm
09:44 79.2 °F /  26.2 °C 47.7 °F /  8.7 °C 30.2in /  1022.1hPa North 0.7mph /  1.1km/h 2.2mph /  3.5km/h 33% 0in /  0.0mm 0.0mm
09:48 79.5 °F /  26.4 °C 51.1 °F /  10.6 °C 30.2in /  1022.1hPa NW 0.7mph /  1.1km/h 2.2mph /  3.5km/h 37% 0in /  0.0mm 0.0mm
09:54 79.7 °F /  26.5 °C 48 °F /  8.9 °C 30.2in /  1022.1hPa NW 1.6mph /  2.6km/h 2.2mph /  3.5km/h 33% 0in /  0.0mm 0.0mm
09:58 78.8 °F /  26.0 °C 48 °F /  8.9 °C 30.2in /  1022.1hPa WNW 0.7mph /  1.1km/h 2.2mph /  3.5km/h 34% 0in /  0.0mm 0.0mm
10:04 76.8 °F /  24.9 °C 49.3 °F /  9.6 °C 30.2in /  1021.8hPa Calm   3.1mph /  5.0km/h 38% 0in /  0.0mm 0.0mm
10:08 77.4 °F /  25.2 °C 49.1 °F /  9.5 °C 30.2in /  1021.7hPa Calm   3.1mph /  5.0km/h 37% 0in /  0.0mm 0.0mm
10:14 79.9 °F /  26.6 °C 49.8 °F /  9.9 °C 30.2in /  1021.4hPa Calm   2.2mph /  3.5km/h 35% 0in /  0.0mm 0.0mm
10:18 81.7 °F /  27.6 °C 51.4 °F /  10.8 °C 30.2in /  1021.3hPa Calm   2.2mph /  3.5km/h 35% 0in /  0.0mm 0.0mm
10:24 82.2 °F /  27.9 °C 45 °F /  7.2 °C 30.2in /  1021.5hPa West 0.7mph /  1.1km/h 2.2mph /  3.5km/h 27% 0in /  0.0mm 0.0mm
10:28 80.6 °F /  27.0 °C 44.4 °F /  6.9 °C 30.2in /  1021.3hPa Calm   3.1mph /  5.0km/h 28% 0in /  0.0mm 0.0mm
10:34 78.1 °F /  25.6 °C 41.4 °F /  5.2 °C 30.2in /  1021.4hPa WNW 0.7mph /  1.1km/h 4.5mph /  7.2km/h 27% 0in /  0.0mm 0.0mm
10:38 77.9 °F /  25.5 °C 48 °F /  8.9 °C 30.2in /  1021.3hPa WNW 2.2mph /  3.5km/h 4.5mph /  7.2km/h 35% 0in /  0.0mm 0.0mm
10:44 77.4 °F /  25.2 °C 49.1 °F /  9.5 °C 30.2in /  1021.2hPa West 1.6mph /  2.6km/h 4.5mph /  7.2km/h 37% 0in /  0.0mm 0.0mm
10:48 76.8 °F /  24.9 °C 51.4 °F /  10.8 °C 30.2in /  1021.4hPa West 1.6mph /  2.6km/h 4.5mph /  7.2km/h 41% 0in /  0.0mm 0.0mm
10:54 76.1 °F /  24.5 °C 50.7 °F /  10.4 °C 30.2in /  1021.6hPa WNW 1.6mph /  2.6km/h 4.5mph /  7.2km/h 41% 0in /  0.0mm 0.0mm
10:58 75.9 °F /  24.4 °C 50.5 °F /  10.3 °C 30.2in /  1021.4hPa WNW 1.6mph /  2.6km/h 4.5mph /  7.2km/h 41% 0in /  0.0mm 0.0mm
11:04 75.7 °F /  24.3 °C 51.1 °F /  10.6 °C 30.2in /  1021.5hPa West 3.1mph /  5.0km/h 6mph /  9.7km/h 42% 0in /  0.0mm 0.0mm
11:08 74.5 °F /  23.6 °C 51.3 °F /  10.7 °C 30.2in /  1021.2hPa NNW 2.2mph /  3.5km/h 6mph /  9.7km/h 44% 0in /  0.0mm 0.0mm
11:14 73.2 °F /  22.9 °C 50 °F /  10.0 °C 30.2in /  1021.2hPa NW 2.2mph /  3.5km/h 6mph /  9.7km/h 44% 0in /  0.0mm 0.0mm
11:18 74.1 °F /  23.4 °C 49.6 °F /  9.8 °C 30.2in /  1021.2hPa WNW 2.2mph /  3.5km/h 6mph /  9.7km/h 42% 0in /  0.0mm 0.0mm
11:24 74.3 °F /  23.5 °C 49.8 °F /  9.9 °C 30.2in /  1021.0hPa NW 2.2mph /  3.5km/h 6mph /  9.7km/h 42% 0in /  0.0mm 0.0mm
11:28 74.5 °F /  23.6 °C 47.8 °F /  8.8 °C 30.2in /  1021.1hPa NW 2.2mph /  3.5km/h 5.4mph /  8.7km/h 39% 0in /  0.0mm 0.0mm
11:34 75.4 °F /  24.1 °C 48 °F /  8.9 °C 30.2in /  1021.0hPa NW 3.1mph /  5.0km/h 5.4mph /  8.7km/h 38% 0in /  0.0mm 0.0mm
11:38 75 °F /  23.9 °C 47.7 °F /  8.7 °C 30.2in /  1021.0hPa WNW 1.6mph /  2.6km/h 5.4mph /  8.7km/h 38% 0in /  0.0mm 0.0mm
11:44 75.6 °F /  24.2 °C 48.9 °F /  9.4 °C 30.2in /  1020.9hPa NW 2.2mph /  3.5km/h 5.4mph /  8.7km/h 39% 0in /  0.0mm 0.0mm
11:48 75.4 °F /  24.1 °C 50.2 °F /  10.1 °C 30.1in /  1020.6hPa NW 1.6mph /  2.6km/h 6.9mph /  11.1km/h 41% 0in /  0.0mm 0.0mm
11:54 76.3 °F /  24.6 °C 52.2 °F /  11.2 °C 30.1in /  1020.5hPa WSW 2.2mph /  3.5km/h 6.9mph /  11.1km/h 43% 0in /  0.0mm 0.0mm
11:58 75.6 °F /  24.2 °C 52.2 °F /  11.2 °C 30.1in /  1020.7hPa WNW 3.1mph /  5.0km/h 6.9mph /  11.1km/h 44% 0in /  0.0mm 0.0mm
12:04 75 °F /  23.9 °C 53.4 °F /  11.9 °C 30.1in /  1020.7hPa WNW 3.8mph /  6.1km/h 6.9mph /  11.1km/h 47% 0in /  0.0mm 0.0mm
12:08 74.3 °F /  23.5 °C 52.9 °F /  11.6 °C 30.1in /  1020.6hPa West 2.2mph /  3.5km/h 6.9mph /  11.1km/h 47% 0in /  0.0mm 0.0mm
12:14 74.3 °F /  23.5 °C 52.9 °F /  11.6 °C 30.1in /  1020.7hPa West 3.1mph /  5.0km/h 8.3mph /  13.4km/h 47% 0in /  0.0mm 0.0mm
12:18 74.1 °F /  23.4 °C 52 °F /  11.1 °C 30.1in /  1020.6hPa West 3.8mph /  6.1km/h 8.3mph /  13.4km/h 46% 0in /  0.0mm 0.0mm
12:24 75 °F /  23.9 °C 52.3 °F /  11.3 °C 30.1in /  1020.7hPa West 3.1mph /  5.0km/h 6.9mph /  11.1km/h 45% 0in /  0.0mm 0.0mm
12:28 75.4 °F /  24.1 °C 52 °F /  11.1 °C 30.1in /  1020.6hPa WNW 2.2mph /  3.5km/h 6.9mph /  11.1km/h 44% 0in /  0.0mm 0.0mm
12:34 76.8 °F /  24.9 °C 52.7 °F /  11.5 °C 30.1in /  1020.6hPa WNW 3.1mph /  5.0km/h 7.6mph /  12.2km/h 43% 0in /  0.0mm 0.0mm
12:38 77 °F /  25.0 °C 51.4 °F /  10.8 °C 30.1in /  1020.5hPa WNW 2.2mph /  3.5km/h 7.6mph /  12.2km/h 41% 0in /  0.0mm 0.0mm
12:44 77.4 °F /  25.2 °C 52.5 °F /  11.4 °C 30.1in /  1020.5hPa NW 3.1mph /  5.0km/h 7.6mph /  12.2km/h 42% 0in /  0.0mm 0.0mm
12:48 77.5 °F /  25.3 °C 52.7 °F /  11.5 °C 30.1in /  1020.4hPa NW 2.2mph /  3.5km/h 6.9mph /  11.1km/h 42% 0in /  0.0mm 0.0mm
12:54 77 °F /  25.0 °C 52.2 °F /  11.2 °C 30.1in /  1020.3hPa NNW 2.2mph /  3.5km/h 9.2mph /  14.8km/h 42% 0in /  0.0mm 0.0mm
12:58 76.6 °F /  24.8 °C 53.8 °F /  12.1 °C 30.1in /  1020.4hPa NNW 3.1mph /  5.0km/h 9.2mph /  14.8km/h 45% 0in /  0.0mm 0.0mm
13:04 76.5 °F /  24.7 °C 53.6 °F /  12.0 °C 30.1in /  1020.1hPa NNE 3.8mph /  6.1km/h 9.2mph /  14.8km/h 45% 0in /  0.0mm 0.0mm
13:08 76.1 °F /  24.5 °C 52 °F /  11.1 °C 30.1in /  1020.1hPa NNE 2.2mph /  3.5km/h 9.2mph /  14.8km/h 43% 0in /  0.0mm 0.0mm
13:14 75.2 °F /  24.0 °C 51.8 °F /  11.0 °C 30.1in /  1020.3hPa NW 2.2mph /  3.5km/h 7.6mph /  12.2km/h 44% 0in /  0.0mm 0.0mm
13:18 74.8 °F /  23.8 °C 52.2 °F /  11.2 °C 30.1in /  1020.2hPa SSW 3.1mph /  5.0km/h 10.7mph /  17.2km/h 45% 0in /  0.0mm 0.0mm
13:24 74.5 °F /  23.6 °C 51.8 °F /  11.0 °C 30.1in /  1020.5hPa WSW 3.8mph /  6.1km/h 10.7mph /  17.2km/h 45% 0in /  0.0mm 0.0mm
13:28 75 °F /  23.9 °C 52.9 °F /  11.6 °C 30.1in /  1020.4hPa NNW 2.2mph /  3.5km/h 6.9mph /  11.1km/h 46% 0in /  0.0mm 0.0mm
13:34 75.7 °F /  24.3 °C 52.3 °F /  11.3 °C 30.1in /  1020.3hPa NE 2.2mph /  3.5km/h 6mph /  9.7km/h 44% 0in /  0.0mm 0.0mm
13:38 75.9 °F /  24.4 °C 52.5 °F /  11.4 °C 30.1in /  1020.4hPa NNE 2.2mph /  3.5km/h 6mph /  9.7km/h 44% 0in /  0.0mm 0.0mm
13:44 75.7 °F /  24.3 °C 54.1 °F /  12.3 °C 30.1in /  1020.5hPa NW 2.2mph /  3.5km/h 6.9mph /  11.1km/h 47% 0in /  0.0mm 0.0mm
13:48 76.1 °F /  24.5 °C 54.3 °F /  12.4 °C 30.1in /  1020.5hPa NW 3.8mph /  6.1km/h 6.9mph /  11.1km/h 47% 0in /  0.0mm 0.0mm
13:54 75.7 °F /  24.3 °C 54.1 °F /  12.3 °C 30.1in /  1020.3hPa NNW 3.1mph /  5.0km/h 7.6mph /  12.2km/h 47% 0in /  0.0mm 0.0mm
13:58 75.4 °F /  24.1 °C 54.3 °F /  12.4 °C 30.1in /  1020.4hPa NW 3.1mph /  5.0km/h 7.6mph /  12.2km/h 48% 0in /  0.0mm 0.0mm
14:04 75 °F /  23.9 °C 56.8 °F /  13.8 °C 30.1in /  1020.4hPa West 3.1mph /  5.0km/h 6.9mph /  11.1km/h 53% 0in /  0.0mm 0.0mm
14:08 74.8 °F /  23.8 °C 57 °F /  13.9 °C 30.1in /  1020.5hPa West 2.2mph /  3.5km/h 6mph /  9.7km/h 54% 0in /  0.0mm 0.0mm
14:14 75 °F /  23.9 °C 55.8 °F /  13.2 °C 30.1in /  1020.2hPa NW 3.1mph /  5.0km/h 6mph /  9.7km/h 51% 0in /  0.0mm 0.0mm
14:18 74.8 °F /  23.8 °C 56.1 °F /  13.4 °C 30.1in /  1020.3hPa NNW 3.1mph /  5.0km/h 6.9mph /  11.1km/h 52% 0in /  0.0mm 0.0mm
14:24 75.6 °F /  24.2 °C 56.1 °F /  13.4 °C 30.1in /  1020.3hPa NNW 3.1mph /  5.0km/h 6.9mph /  11.1km/h 51% 0in /  0.0mm 0.0mm
14:28 76.3 °F /  24.6 °C 56.3 °F /  13.5 °C 30.1in /  1020.3hPa WNW 2.2mph /  3.5km/h 6.9mph /  11.1km/h 50% 0in /  0.0mm 0.0mm
14:34 76.3 °F /  24.6 °C 56.3 °F /  13.5 °C 30.1in /  1020.2hPa NNE 3.1mph /  5.0km/h 6.9mph /  11.1km/h 50% 0in /  0.0mm 0.0mm
14:38 76.1 °F /  24.5 °C 56.7 °F /  13.7 °C 30.1in /  1020.5hPa NE 2.2mph /  3.5km/h 6.9mph /  11.1km/h 51% 0in /  0.0mm 0.0mm
14:44 77 °F /  25.0 °C 54.7 °F /  12.6 °C 30.1in /  1020.3hPa NE 3.8mph /  6.1km/h 6mph /  9.7km/h 46% 0in /  0.0mm 0.0mm
14:48 76.8 °F /  24.9 °C 55.8 °F /  13.2 °C 30.1in /  1020.4hPa NNE 3.1mph /  5.0km/h 6mph /  9.7km/h 48% 0in /  0.0mm 0.0mm
14:54 77.5 °F /  25.3 °C 55.8 °F /  13.2 °C 30.1in /  1020.5hPa East 2.2mph /  3.5km/h 6mph /  9.7km/h 47% 0in /  0.0mm 0.0mm
14:58 77.4 °F /  25.2 °C 54.3 °F /  12.4 °C 30.1in /  1020.4hPa ENE 3.8mph /  6.1km/h 6mph /  9.7km/h 45% 0in /  0.0mm 0.0mm
15:04 77.4 °F /  25.2 °C 53.2 °F /  11.8 °C 30.1in /  1020.3hPa North 3.1mph /  5.0km/h 6mph /  9.7km/h 43% 0in /  0.0mm 0.0mm
15:08 77.4 °F /  25.2 °C 53.2 °F /  11.8 °C 30.1in /  1020.4hPa NE 3.1mph /  5.0km/h 6mph /  9.7km/h 43% 0in /  0.0mm 0.0mm
15:14 77.9 °F /  25.5 °C 53.6 °F /  12.0 °C 30.1in /  1020.4hPa NE 1.6mph /  2.6km/h 8.3mph /  13.4km/h 43% 0in /  0.0mm 0.0mm
15:18 78.4 °F /  25.8 °C 54.1 °F /  12.3 °C 30.1in /  1020.4hPa NE 2.2mph /  3.5km/h 8.3mph /  13.4km/h 43% 0in /  0.0mm 0.0mm
15:24 79 °F /  26.1 °C 53.2 °F /  11.8 °C 30.1in /  1020.3hPa NE 1.6mph /  2.6km/h 6mph /  9.7km/h 41% 0in /  0.0mm 0.0mm
15:28 79.3 °F /  26.3 °C 53.1 °F /  11.7 °C 30.1in /  1020.3hPa NNE 0.7mph /  1.1km/h 6mph /  9.7km/h 40% 0in /  0.0mm 0.0mm
15:34 79 °F /  26.1 °C 52.5 °F /  11.4 °C 30.1in /  1020.1hPa NE 3.1mph /  5.0km/h 6mph /  9.7km/h 40% 0in /  0.0mm 0.0mm
15:38 78.4 °F /  25.8 °C 53.4 °F /  11.9 °C 30.1in /  1020.0hPa North 2.2mph /  3.5km/h 5.4mph /  8.7km/h 42% 0in /  0.0mm 0.0mm
15:44 78.4 °F /  25.8 °C 52.9 °F /  11.6 °C 30.1in /  1020.0hPa NE 1.6mph /  2.6km/h 6mph /  9.7km/h 41% 0in /  0.0mm 0.0mm
15:48 78.4 °F /  25.8 °C 54.1 °F /  12.3 °C 30.1in /  1019.9hPa ENE 1.6mph /  2.6km/h 6mph /  9.7km/h 43% 0in /  0.0mm 0.0mm
15:54 78.4 °F /  25.8 °C 53.4 °F /  11.9 °C 30.1in /  1019.9hPa NE 1.6mph /  2.6km/h 6mph /  9.7km/h 42% 0in /  0.0mm 0.0mm
15:58 79 °F /  26.1 °C 53.2 °F /  11.8 °C 30.1in /  1020.1hPa NE 3.8mph /  6.1km/h 6.9mph /  11.1km/h 41% 0in /  0.0mm 0.0mm
16:04 79 °F /  26.1 °C 53.2 °F /  11.8 °C 30.1in /  1020.1hPa NE 1.6mph /  2.6km/h 6.9mph /  11.1km/h 41% 0in /  0.0mm 0.0mm
16:08 79 °F /  26.1 °C 54 °F /  12.2 °C 30.1in /  1020.1hPa NE 2.2mph /  3.5km/h 7.6mph /  12.2km/h 42% 0in /  0.0mm 0.0mm
16:14 79.3 °F /  26.3 °C 54.3 °F /  12.4 °C 30.1in /  1019.9hPa ENE 2.2mph /  3.5km/h 7.6mph /  12.2km/h 42% 0in /  0.0mm 0.0mm
16:18 79.2 °F /  26.2 °C 54.1 °F /  12.3 °C 30.1in /  1019.9hPa NE 3.1mph /  5.0km/h 6mph /  9.7km/h 42% 0in /  0.0mm 0.0mm
16:24 78.3 °F /  25.7 °C 54 °F /  12.2 °C 30.1in /  1020.2hPa NE 1.6mph /  2.6km/h 5.4mph /  8.7km/h 43% 0in /  0.0mm 0.0mm
16:28 78.1 °F /  25.6 °C 54.3 °F /  12.4 °C 30.1in /  1020.1hPa NNE 3.1mph /  5.0km/h 5.4mph /  8.7km/h 44% 0in /  0.0mm 0.0mm
16:34 78.4 °F /  25.8 °C 54.1 °F /  12.3 °C 30.1in /  1019.9hPa NNE 0.7mph /  1.1km/h 5.4mph /  8.7km/h 43% 0in /  0.0mm 0.0mm
16:38 79.2 °F /  26.2 °C 54.1 °F /  12.3 °C 30.1in /  1020.0hPa NE 1.6mph /  2.6km/h 6.9mph /  11.1km/h 42% 0in /  0.0mm 0.0mm
16:44 79.7 °F /  26.5 °C 53.2 °F /  11.8 °C 30.1in /  1020.0hPa NE 2.2mph /  3.5km/h 7.6mph /  12.2km/h 40% 0in /  0.0mm 0.0mm
16:48 79.5 °F /  26.4 °C 53.8 °F /  12.1 °C 30.1in /  1019.9hPa NNE 2.2mph /  3.5km/h 7.6mph /  12.2km/h 41% 0in /  0.0mm 0.0mm
16:54 79 °F /  26.1 °C 53.2 °F /  11.8 °C 30.1in /  1019.7hPa NNE 3.1mph /  5.0km/h 5.4mph /  8.7km/h 41% 0in /  0.0mm 0.0mm
16:58 78.4 °F /  25.8 °C 53.4 °F /  11.9 °C 30.1in /  1019.6hPa NNE 2.2mph /  3.5km/h 6mph /  9.7km/h 42% 0in /  0.0mm 0.0mm
17:04 78.4 °F /  25.8 °C 53.4 °F /  11.9 °C 30.1in /  1019.4hPa NE 3.1mph /  5.0km/h 6mph /  9.7km/h 42% 0in /  0.0mm 0.0mm
17:08 78.4 °F /  25.8 °C 54.1 °F /  12.3 °C 30.1in /  1019.2hPa NE 3.1mph /  5.0km/h 5.4mph /  8.7km/h 43% 0in /  0.0mm 0.0mm
17:14 78.4 °F /  25.8 °C 54.1 °F /  12.3 °C 30.1in /  1019.0hPa NE 1.6mph /  2.6km/h 5.4mph /  8.7km/h 43% 0in /  0.0mm 0.0mm
17:18 78.4 °F /  25.8 °C 53.4 °F /  11.9 °C 30.1in /  1019.2hPa NE 1.6mph /  2.6km/h 5.4mph /  8.7km/h 42% 0in /  0.0mm 0.0mm
17:24 78.3 °F /  25.7 °C 53.2 °F /  11.8 °C 30.1in /  1019.2hPa NNE 1.6mph /  2.6km/h 6.9mph /  11.1km/h 42% 0in /  0.0mm 0.0mm
17:28 79 °F /  26.1 °C 54 °F /  12.2 °C 30.1in /  1019.3hPa NNE 2.2mph /  3.5km/h 6.9mph /  11.1km/h 42% 0in /  0.0mm 0.0mm
17:34 79.2 °F /  26.2 °C 53.4 °F /  11.9 °C 30.1in /  1019.2hPa NE 0.7mph /  1.1km/h 4.5mph /  7.2km/h 41% 0in /  0.0mm 0.0mm
17:38 79.7 °F /  26.5 °C 53.2 °F /  11.8 °C 30.1in /  1019.3hPa NE 2.2mph /  3.5km/h 5.4mph /  8.7km/h 40% 0in /  0.0mm 0.0mm
17:44 79 °F /  26.1 °C 52.5 °F /  11.4 °C 30.1in /  1019.5hPa NNE 3.1mph /  5.0km/h 5.4mph /  8.7km/h 40% 0in /  0.0mm 0.0mm
17:48 78.4 °F /  25.8 °C 52.9 °F /  11.6 °C 30.1in /  1019.4hPa NNE 1.6mph /  2.6km/h 5.4mph /  8.7km/h 41% 0in /  0.0mm 0.0mm
17:54 78.3 °F /  25.7 °C 53.2 °F /  11.8 °C 30.1in /  1019.3hPa North 0.7mph /  1.1km/h 5.4mph /  8.7km/h 42% 0in /  0.0mm 0.0mm
17:58 77.9 °F /  25.5 °C 52.3 °F /  11.3 °C 30.1in /  1019.5hPa NE 2.2mph /  3.5km/h 6mph /  9.7km/h 41% 0in /  0.0mm 0.0mm
18:04 78.4 °F /  25.8 °C 54.1 °F /  12.3 °C 30.1in /  1019.3hPa ENE 3.1mph /  5.0km/h 6mph /  9.7km/h 43% 0in /  0.0mm 0.0mm
18:08 77.9 °F /  25.5 °C 53.1 °F /  11.7 °C 30.1in /  1019.4hPa NNE 2.2mph /  3.5km/h 6mph /  9.7km/h 42% 0in /  0.0mm 0.0mm
18:14 77.5 °F /  25.3 °C 52.7 °F /  11.5 °C 30.1in /  1019.3hPa NE 1.6mph /  2.6km/h 6.9mph /  11.1km/h 42% 0in /  0.0mm 0.0mm
18:18 77.9 °F /  25.5 °C 53.1 °F /  11.7 °C 30.1in /  1019.3hPa NE 1.6mph /  2.6km/h 6.9mph /  11.1km/h 42% 0in /  0.0mm 0.0mm
18:24 78.1 °F /  25.6 °C 52.5 °F /  11.4 °C 30.1in /  1019.3hPa NNE 1.6mph /  2.6km/h 3.8mph /  6.1km/h 41% 0in /  0.0mm 0.0mm
18:28 78.4 °F /  25.8 °C 52.9 °F /  11.6 °C 30.1in /  1019.3hPa NNE 1.6mph /  2.6km/h 3.8mph /  6.1km/h 41% 0in /  0.0mm 0.0mm
18:34 79.7 °F /  26.5 °C 52.5 °F /  11.4 °C 30.1in /  1019.3hPa NNE 0.7mph /  1.1km/h 3.1mph /  5.0km/h 39% 0in /  0.0mm 0.0mm
18:38 78.4 °F /  25.8 °C 52.2 °F /  11.2 °C 30.1in /  1019.0hPa ENE 2.2mph /  3.5km/h 3.8mph /  6.1km/h 40% 0in /  0.0mm 0.0mm
18:44 79 °F /  26.1 °C 52 °F /  11.1 °C 30.1in /  1019.2hPa ESE 0.7mph /  1.1km/h 3.8mph /  6.1km/h 39% 0in /  0.0mm 0.0mm
18:48 78.4 °F /  25.8 °C 51.4 °F /  10.8 °C 30.1in /  1019.1hPa North 1.6mph /  2.6km/h 4.5mph /  7.2km/h 39% 0in /  0.0mm 0.0mm
18:54 78.1 °F /  25.6 °C 52.5 °F /  11.4 °C 30.1in /  1019.1hPa NNW 0.7mph /  1.1km/h 5.4mph /  8.7km/h 41% 0in /  0.0mm 0.0mm
18:58 78.1 °F /  25.6 °C 52.5 °F /  11.4 °C 30.1in /  1019.2hPa NNW 2.2mph /  3.5km/h 5.4mph /  8.7km/h 41% 0in /  0.0mm 0.0mm
19:04 77.4 °F /  25.2 °C 52.5 °F /  11.4 °C 30.1in /  1019.2hPa North 0.7mph /  1.1km/h 3.8mph /  6.1km/h 42% 0in /  0.0mm 0.0mm
19:08 77.2 °F /  25.1 °C 52.3 °F /  11.3 °C 30.1in /  1019.1hPa ENE 0.7mph /  1.1km/h 3.8mph /  6.1km/h 42% 0in /  0.0mm 0.0mm
19:14 75.9 °F /  24.4 °C 52.5 °F /  11.4 °C 30.1in /  1019.2hPa NNE 0.7mph /  1.1km/h 3.8mph /  6.1km/h 44% 0in /  0.0mm 0.0mm
19:18 75.7 °F /  24.3 °C 52.9 °F /  11.6 °C 30.1in /  1019.3hPa NNE 1.6mph /  2.6km/h 3.8mph /  6.1km/h 45% 0in /  0.0mm 0.0mm
19:24 75 °F /  23.9 °C 52.3 °F /  11.3 °C 30.1in /  1019.4hPa NE 1.6mph /  2.6km/h 3.1mph /  5.0km/h 45% 0in /  0.0mm 0.0mm
19:28 73.9 °F /  23.3 °C 52 °F /  11.1 °C 30.1in /  1019.5hPa Calm   3.1mph /  5.0km/h 46% 0in /  0.0mm 0.0mm
19:34 73.2 °F /  22.9 °C 52.3 °F /  11.3 °C 30.1in /  1019.3hPa NNW 0.7mph /  1.1km/h 3.1mph /  5.0km/h 48% 0in /  0.0mm 0.0mm
19:38 72.5 °F /  22.5 °C 52.3 °F /  11.3 °C 30.1in /  1019.5hPa NNW 1.6mph /  2.6km/h 3.1mph /  5.0km/h 49% 0in /  0.0mm 0.0mm
19:44 70.3 °F /  21.3 °C 51.4 °F /  10.8 °C 30.1in /  1019.4hPa NNE 2.2mph /  3.5km/h 3.1mph /  5.0km/h 51% 0in /  0.0mm 0.0mm
19:48 69.1 °F /  20.6 °C 51.3 °F /  10.7 °C 30.1in /  1019.6hPa NE 1.6mph /  2.6km/h 3.1mph /  5.0km/h 53% 0in /  0.0mm 0.0mm
19:54 67.1 °F /  19.5 °C 50.9 °F /  10.5 °C 30.1in /  1019.7hPa ENE 1.6mph /  2.6km/h 3.1mph /  5.0km/h 56% 0in /  0.0mm 0.0mm
19:58 66.2 °F /  19.0 °C 51.1 °F /  10.6 °C 30.1in /  1019.5hPa NE 0.7mph /  1.1km/h 3.1mph /  5.0km/h 58% 0in /  0.0mm 0.0mm
20:04 65.3 °F /  18.5 °C 51.4 °F /  10.8 °C 30.1in /  1019.7hPa NNE 0.7mph /  1.1km/h 3.1mph /  5.0km/h 61% 0in /  0.0mm 0.0mm
20:08 64.8 °F /  18.2 °C 51.4 °F /  10.8 °C 30.1in /  1019.8hPa North 0.7mph /  1.1km/h 3.1mph /  5.0km/h 62% 0in /  0.0mm 0.0mm
20:14 64.2 °F /  17.9 °C 51.4 °F /  10.8 °C 30.1in /  1019.8hPa NNE 0.7mph /  1.1km/h 3.1mph /  5.0km/h 63% 0in /  0.0mm 0.0mm
20:18 64 °F /  17.8 °C 51.6 °F /  10.9 °C 30.1in /  1019.7hPa NNE 0.7mph /  1.1km/h 3.1mph /  5.0km/h 64% 0in /  0.0mm 0.0mm
20:24 63.7 °F /  17.6 °C 52.2 °F /  11.2 °C 30.1in /  1019.8hPa Calm   3.1mph /  5.0km/h 66% 0in /  0.0mm 0.0mm
20:28 63.3 °F /  17.4 °C 52.2 °F /  11.2 °C 30.1in /  1019.8hPa Calm   2.2mph /  3.5km/h 67% 0in /  0.0mm 0.0mm
20:34 62.8 °F /  17.1 °C 52.2 °F /  11.2 °C 30.1in /  1019.8hPa West 0.7mph /  1.1km/h 2.2mph /  3.5km/h 68% 0in /  0.0mm 0.0mm
20:38 62.6 °F /  17.0 °C 52 °F /  11.1 °C 30.1in /  1019.8hPa Calm   2.2mph /  3.5km/h 68% 0in /  0.0mm 0.0mm
20:44 62.4 °F /  16.9 °C 52.5 °F /  11.4 °C 30.1in /  1019.8hPa Calm   3.1mph /  5.0km/h 70% 0in /  0.0mm 0.0mm
20:48 62.4 °F /  16.9 °C 52.9 °F /  11.6 °C 30.1in /  1019.9hPa Calm   3.1mph /  5.0km/h 71% 0in /  0.0mm 0.0mm
20:54 62.2 °F /  16.8 °C 53.1 °F /  11.7 °C 30.1in /  1020.1hPa Calm   3.1mph /  5.0km/h 72% 0in /  0.0mm 0.0mm
20:58 62.1 °F /  16.7 °C 53.2 °F /  11.8 °C 30.1in /  1020.0hPa Calm   2.2mph /  3.5km/h 73% 0in /  0.0mm 0.0mm
21:04 61.7 °F /  16.5 °C 53.1 °F /  11.7 °C 30.1in /  1020.2hPa Calm   1.6mph /  2.6km/h 73% 0in /  0.0mm 0.0mm
21:08 61.5 °F /  16.4 °C 53.2 °F /  11.8 °C 30.1in /  1020.1hPa Calm   1.6mph /  2.6km/h 74% 0in /  0.0mm 0.0mm
21:14 61.5 °F /  16.4 °C 53.2 °F /  11.8 °C 30.1in /  1020.1hPa WNW 1.6mph /  2.6km/h 3.1mph /  5.0km/h 74% 0in /  0.0mm 0.0mm
21:18 61.7 °F /  16.5 °C 53.8 °F /  12.1 °C 30.1in /  1020.0hPa Calm   3.1mph /  5.0km/h 75% 0in /  0.0mm 0.0mm
21:24 61.9 °F /  16.6 °C 54.1 °F /  12.3 °C 30.1in /  1020.2hPa Calm   2.2mph /  3.5km/h 76% 0in /  0.0mm 0.0mm
21:28 62.2 °F /  16.8 °C 54.7 °F /  12.6 °C 30.1in /  1020.1hPa Calm   1.6mph /  2.6km/h 76% 0in /  0.0mm 0.0mm
21:34 62.8 °F /  17.1 °C 55 °F /  12.8 °C 30.1in /  1020.3hPa Calm   2.2mph /  3.5km/h 76% 0in /  0.0mm 0.0mm
21:38 63 °F /  17.2 °C 55.2 °F /  12.9 °C 30.1in /  1020.5hPa Calm   2.2mph /  3.5km/h 76% 0in /  0.0mm 0.0mm
21:44 63.1 °F /  17.3 °C 55.6 °F /  13.1 °C 30.1in /  1020.6hPa Calm   3.1mph /  5.0km/h 76% 0in /  0.0mm 0.0mm
21:48 63.1 °F /  17.3 °C 55.6 °F /  13.1 °C 30.1in /  1020.4hPa Calm   3.1mph /  5.0km/h 76% 0in /  0.0mm 0.0mm
21:54 62.8 °F /  17.1 °C 55 °F /  12.8 °C 30.1in /  1020.6hPa Calm   0.7mph /  1.1km/h 76% 0in /  0.0mm 0.0mm
21:58 62.4 °F /  16.9 °C 55 °F /  12.8 °C 30.1in /  1020.6hPa Calm   0.7mph /  1.1km/h 77% 0in /  0.0mm 0.0mm
22:04 62.1 °F /  16.7 °C 55 °F /  12.8 °C 30.1in /  1020.8hPa Calm   0.7mph /  1.1km/h 78% 0in /  0.0mm 0.0mm
22:08 61.9 °F /  16.6 °C 55 °F /  12.8 °C 30.2in /  1021.1hPa Calm   0.7mph /  1.1km/h 78% 0in /  0.0mm 0.0mm
22:14 61.7 °F /  16.5 °C 55 °F /  12.8 °C 30.2in /  1021.1hPa Calm   1.6mph /  2.6km/h 79% 0in /  0.0mm 0.0mm
22:18 61.5 °F /  16.4 °C 55 °F /  12.8 °C 30.2in /  1021.2hPa Calm   1.6mph /  2.6km/h 79% 0in /  0.0mm 0.0mm
22:24 61.3 °F /  16.3 °C 54.9 °F /  12.7 °C 30.2in /  1021.0hPa Calm   0.7mph /  1.1km/h 79% 0in /  0.0mm 0.0mm
22:28 61.3 °F /  16.3 °C 54.9 °F /  12.7 °C 30.2in /  1021.0hPa Calm   0.7mph /  1.1km/h 79% 0in /  0.0mm 0.0mm
22:34 61.2 °F /  16.2 °C 55 °F /  12.8 °C 30.2in /  1021.0hPa Calm   0.7mph /  1.1km/h 80% 0in /  0.0mm 0.0mm
22:38 61.2 °F /  16.2 °C 55 °F /  12.8 °C 30.2in /  1021.0hPa Calm   0.7mph /  1.1km/h 80% 0in /  0.0mm 0.0mm
22:44 61.2 °F /  16.2 °C 55 °F /  12.8 °C 30.2in /  1020.9hPa Calm   0.7mph /  1.1km/h 80% 0in /  0.0mm 0.0mm
22:48 61 °F /  16.1 °C 54.9 °F /  12.7 °C 30.2in /  1020.9hPa Calm     80% 0in /  0.0mm 0.0mm
22:54 61 °F /  16.1 °C 54.9 °F /  12.7 °C 30.1in /  1020.7hPa Calm     80% 0in /  0.0mm 0.0mm
22:58 61 °F /  16.1 °C 54.9 °F /  12.7 °C 30.1in /  1020.7hPa Calm     80% 0in /  0.0mm 0.0mm
23:04 61 °F /  16.1 °C 55 °F /  12.8 °C 30.1in /  1020.6hPa Calm     81% 0in /  0.0mm 0.0mm
23:08 61.2 °F /  16.2 °C 55.2 °F /  12.9 °C 30.1in /  1020.7hPa Calm     81% 0in /  0.0mm 0.0mm
23:14 61.2 °F /  16.2 °C 55.2 °F /  12.9 °C 30.1in /  1020.6hPa Calm     81% 0in /  0.0mm 0.0mm
23:18 61.2 °F /  16.2 °C 55.2 °F /  12.9 °C 30.1in /  1020.7hPa Calm     81% 0in /  0.0mm 0.0mm
23:24 61.2 °F /  16.2 °C 55.6 °F /  13.1 °C 30.1in /  1020.6hPa Calm     82% 0in /  0.0mm 0.0mm
23:28 61.2 °F /  16.2 °C 55.6 °F /  13.1 °C 30.1in /  1020.6hPa Calm     82% 0in /  0.0mm 0.0mm
23:34 61.2 °F /  16.2 °C 55.6 °F /  13.1 °C 30.1in /  1020.4hPa Calm     82% 0in /  0.0mm 0.0mm
23:38 61.2 °F /  16.2 °C 55.6 °F /  13.1 °C 30.1in /  1020.4hPa Calm     82% 0in /  0.0mm 0.0mm
23:44 61.2 °F /  16.2 °C 55.6 °F /  13.1 °C 30.1in /  1020.5hPa Calm     82% 0in /  0.0mm 0.0mm
23:48 61.2 °F /  16.2 °C 55.6 °F /  13.1 °C 30.1in /  1020.6hPa Calm     82% 0in /  0.0mm 0.0mm
23:54 61.2 °F /  16.2 °C 55.9 °F /  13.3 °C 30.1in /  1020.4hPa Calm     83% 0in /  0.0mm 0.0mm
23:58 61.2 °F /  16.2 °C 55.9 °F /  13.3 °C 30.1in /  1020.5hPa Calm     83% 0in /  0.0mm 0.0mm
Opotiki Town Weather
Compliments of Weather Underground - 2.25 mb

NZ Local Weather Forum      Cumulus Top Weather Sites      New Zealand Top40 Weather Station Sites      Flag Counter